sensor_id;sensor_type;location;lat;lon;timestamp;temperature;humidity
6462;DHT22;3264;42.862;25.098;2023-04-24T00:02:12;5.50;99.90
6462;DHT22;3264;42.862;25.098;2023-04-24T00:04:42;5.40;99.90
6462;DHT22;3264;42.862;25.098;2023-04-24T00:07:11;5.50;99.90
6462;DHT22;3264;42.862;25.098;2023-04-24T00:09:38;5.50;99.90
6462;DHT22;3264;42.862;25.098;2023-04-24T00:12:06;5.50;99.90
6462;DHT22;3264;42.862;25.098;2023-04-24T00:14:37;5.50;99.90
6462;DHT22;3264;42.862;25.098;2023-04-24T00:17:14;5.40;99.90
6462;DHT22;3264;42.862;25.098;2023-04-24T00:19:42;5.40;99.90
6462;DHT22;3264;42.862;25.098;2023-04-24T00:22:11;5.40;99.90
6462;DHT22;3264;42.862;25.098;2023-04-24T00:24:41;5.40;99.90
6462;DHT22;3264;42.862;25.098;2023-04-24T00:27:13;5.30;99.90
6462;DHT22;3264;42.862;25.098;2023-04-24T00:29:41;5.30;99.90
6462;DHT22;3264;42.862;25.098;2023-04-24T00:32:09;5.30;99.90
6462;DHT22;3264;42.862;25.098;2023-04-24T00:34:38;5.20;99.90
6462;DHT22;3264;42.862;25.098;2023-04-24T00:37:19;5.30;99.90
6462;DHT22;3264;42.862;25.098;2023-04-24T00:39:47;5.20;99.90
6462;DHT22;3264;42.862;25.098;2023-04-24T00:42:15;5.20;99.90
6462;DHT22;3264;42.862;25.098;2023-04-24T00:44:44;5.30;99.90
6462;DHT22;3264;42.862;25.098;2023-04-24T00:47:14;5.20;99.90
6462;DHT22;3264;42.862;25.098;2023-04-24T00:49:46;5.10;99.90
6462;DHT22;3264;42.862;25.098;2023-04-24T00:52:22;5.10;99.90
6462;DHT22;3264;42.862;25.098;2023-04-24T00:54:54;5.20;99.90
6462;DHT22;3264;42.862;25.098;2023-04-24T00:57:25;5.20;99.90
6462;DHT22;3264;42.862;25.098;2023-04-24T00:59:54;5.30;99.90
6462;DHT22;3264;42.862;25.098;2023-04-24T01:02:22;5.20;99.90
6462;DHT22;3264;42.862;25.098;2023-04-24T01:04:53;5.20;99.90
6462;DHT22;3264;42.862;25.098;2023-04-24T01:07:22;5.20;99.90
6462;DHT22;3264;42.862;25.098;2023-04-24T01:09:54;5.40;99.90
6462;DHT22;3264;42.862;25.098;2023-04-24T01:12:23;5.40;99.90
6462;DHT22;3264;42.862;25.098;2023-04-24T01:14:51;5.40;99.90
6462;DHT22;3264;42.862;25.098;2023-04-24T01:17:18;5.60;99.90
6462;DHT22;3264;42.862;25.098;2023-04-24T01:19:46;5.60;99.90
6462;DHT22;3264;42.862;25.098;2023-04-24T01:22:15;5.50;99.90
6462;DHT22;3264;42.862;25.098;2023-04-24T01:24:53;5.60;99.90
6462;DHT22;3264;42.862;25.098;2023-04-24T01:27:27;5.70;99.90
6462;DHT22;3264;42.862;25.098;2023-04-24T01:29:55;5.80;99.90
6462;DHT22;3264;42.862;25.098;2023-04-24T01:32:23;5.90;99.90
6462;DHT22;3264;42.862;25.098;2023-04-24T01:34:54;6.00;99.90
6462;DHT22;3264;42.862;25.098;2023-04-24T01:37:29;6.00;99.90
6462;DHT22;3264;42.862;25.098;2023-04-24T01:39:58;6.10;99.90
6462;DHT22;3264;42.862;25.098;2023-04-24T01:42:30;6.10;99.90
6462;DHT22;3264;42.862;25.098;2023-04-24T01:44:57;6.10;99.90
6462;DHT22;3264;42.862;25.098;2023-04-24T01:47:30;6.10;99.90
6462;DHT22;3264;42.862;25.098;2023-04-24T01:49:59;6.10;99.90
6462;DHT22;3264;42.862;25.098;2023-04-24T01:52:32;6.10;99.90
6462;DHT22;3264;42.862;25.098;2023-04-24T01:55:36;6.10;99.90
6462;DHT22;3264;42.862;25.098;2023-04-24T01:58:08;6.20;99.90
6462;DHT22;3264;42.862;25.098;2023-04-24T02:00:38;6.20;99.90
6462;DHT22;3264;42.862;25.098;2023-04-24T02:03:05;6.30;99.90
6462;DHT22;3264;42.862;25.098;2023-04-24T02:05:34;6.10;99.90
6462;DHT22;3264;42.862;25.098;2023-04-24T02:08:11;6.30;99.90
6462;DHT22;3264;42.862;25.098;2023-04-24T02:10:38;6.20;99.90
6462;DHT22;3264;42.862;25.098;2023-04-24T02:13:14;6.20;99.90
6462;DHT22;3264;42.862;25.098;2023-04-24T02:15:43;6.20;99.90
6462;DHT22;3264;42.862;25.098;2023-04-24T02:18:14;6.20;99.90
6462;DHT22;3264;42.862;25.098;2023-04-24T02:20:49;6.30;99.90
6462;DHT22;3264;42.862;25.098;2023-04-24T02:23:23;6.40;99.90
6462;DHT22;3264;42.862;25.098;2023-04-24T02:25:51;6.40;99.90
6462;DHT22;3264;42.862;25.098;2023-04-24T02:28:23;6.30;99.90
6462;DHT22;3264;42.862;25.098;2023-04-24T02:30:51;6.30;99.90
6462;DHT22;3264;42.862;25.098;2023-04-24T02:33:19;6.40;99.90
6462;DHT22;3264;42.862;25.098;2023-04-24T02:35:53;6.50;99.90
6462;DHT22;3264;42.862;25.098;2023-04-24T02:38:23;6.40;99.90
6462;DHT22;3264;42.862;25.098;2023-04-24T02:40:50;6.50;99.90
6462;DHT22;3264;42.862;25.098;2023-04-24T02:43:19;6.50;99.90
6462;DHT22;3264;42.862;25.098;2023-04-24T02:45:47;6.60;99.90
6462;DHT22;3264;42.862;25.098;2023-04-24T02:48:15;6.60;99.90
6462;DHT22;3264;42.862;25.098;2023-04-24T02:50:44;6.60;99.90
6462;DHT22;3264;42.862;25.098;2023-04-24T02:53:12;6.70;99.90
6462;DHT22;3264;42.862;25.098;2023-04-24T02:55:44;6.70;99.90
6462;DHT22;3264;42.862;25.098;2023-04-24T02:58:12;6.70;99.90
6462;DHT22;3264;42.862;25.098;2023-04-24T03:00:40;6.80;99.90
6462;DHT22;3264;42.862;25.098;2023-04-24T03:03:10;6.80;99.90
6462;DHT22;3264;42.862;25.098;2023-04-24T03:05:38;6.70;99.90
6462;DHT22;3264;42.862;25.098;2023-04-24T03:08:10;6.60;99.90
6462;DHT22;3264;42.862;25.098;2023-04-24T03:10:42;6.60;99.90
6462;DHT22;3264;42.862;25.098;2023-04-24T03:13:12;6.50;99.90
6462;DHT22;3264;42.862;25.098;2023-04-24T03:15:40;6.50;99.90
6462;DHT22;3264;42.862;25.098;2023-04-24T03:18:10;6.50;99.90
6462;DHT22;3264;42.862;25.098;2023-04-24T03:20:40;6.50;99.90
6462;DHT22;3264;42.862;25.098;2023-04-24T03:23:10;6.40;99.90
6462;DHT22;3264;42.862;25.098;2023-04-24T03:25:39;6.30;99.90
6462;DHT22;3264;42.862;25.098;2023-04-24T03:28:09;6.20;99.90
6462;DHT22;3264;42.862;25.098;2023-04-24T03:30:36;6.30;99.90
6462;DHT22;3264;42.862;25.098;2023-04-24T03:33:04;6.50;99.90
6462;DHT22;3264;42.862;25.098;2023-04-24T03:35:36;6.50;99.90
6462;DHT22;3264;42.862;25.098;2023-04-24T03:38:10;6.60;99.90
6462;DHT22;3264;42.862;25.098;2023-04-24T03:40:39;6.70;99.90
6462;DHT22;3264;42.862;25.098;2023-04-24T03:43:10;6.70;99.90
6462;DHT22;3264;42.862;25.098;2023-04-24T03:45:37;6.70;99.90
6462;DHT22;3264;42.862;25.098;2023-04-24T03:48:09;6.60;99.90
6462;DHT22;3264;42.862;25.098;2023-04-24T03:50:37;6.60;99.90
6462;DHT22;3264;42.862;25.098;2023-04-24T03:53:07;6.70;99.90
6462;DHT22;3264;42.862;25.098;2023-04-24T03:55:35;6.80;99.90
6462;DHT22;3264;42.862;25.098;2023-04-24T03:58:03;6.80;99.90
6462;DHT22;3264;42.862;25.098;2023-04-24T04:00:33;7.00;99.90
6462;DHT22;3264;42.862;25.098;2023-04-24T04:03:01;7.10;99.90
6462;DHT22;3264;42.862;25.098;2023-04-24T04:05:28;7.10;99.90
6462;DHT22;3264;42.862;25.098;2023-04-24T04:08:07;7.20;99.90
6462;DHT22;3264;42.862;25.098;2023-04-24T04:10:34;7.30;99.90
6462;DHT22;3264;42.862;25.098;2023-04-24T04:13:11;7.30;99.90
6462;DHT22;3264;42.862;25.098;2023-04-24T04:15:43;7.20;99.90
6462;DHT22;3264;42.862;25.098;2023-04-24T04:18:11;7.30;99.90
6462;DHT22;3264;42.862;25.098;2023-04-24T04:20:41;7.30;99.90
6462;DHT22;3264;42.862;25.098;2023-04-24T04:23:08;7.30;99.90
6462;DHT22;3264;42.862;25.098;2023-04-24T04:25:39;7.40;99.90
6462;DHT22;3264;42.862;25.098;2023-04-24T04:28:09;7.40;99.90
6462;DHT22;3264;42.862;25.098;2023-04-24T04:30:40;7.50;99.90
6462;DHT22;3264;42.862;25.098;2023-04-24T04:33:12;7.50;99.90
6462;DHT22;3264;42.862;25.098;2023-04-24T04:35:40;7.60;99.90
6462;DHT22;3264;42.862;25.098;2023-04-24T04:38:11;7.70;99.90
6462;DHT22;3264;42.862;25.098;2023-04-24T04:40:44;7.80;99.90
6462;DHT22;3264;42.862;25.098;2023-04-24T04:43:29;8.10;99.90
6462;DHT22;3264;42.862;25.098;2023-04-24T04:45:58;8.30;99.90
6462;DHT22;3264;42.862;25.098;2023-04-24T04:48:29;8.60;99.90
6462;DHT22;3264;42.862;25.098;2023-04-24T04:50:58;8.90;99.90
6462;DHT22;3264;42.862;25.098;2023-04-24T04:53:26;9.20;99.90
6462;DHT22;3264;42.862;25.098;2023-04-24T04:55:56;9.30;99.90
6462;DHT22;3264;42.862;25.098;2023-04-24T04:58:23;9.40;99.90
6462;DHT22;3264;42.862;25.098;2023-04-24T05:00:51;9.60;99.90
6462;DHT22;3264;42.862;25.098;2023-04-24T05:03:23;10.00;99.90
6462;DHT22;3264;42.862;25.098;2023-04-24T05:05:52;10.20;99.90
6462;DHT22;3264;42.862;25.098;2023-04-24T05:08:38;10.30;99.90
6462;DHT22;3264;42.862;25.098;2023-04-24T05:11:05;10.30;99.90
6462;DHT22;3264;42.862;25.098;2023-04-24T05:13:33;10.50;99.90
6462;DHT22;3264;42.862;25.098;2023-04-24T05:16:11;10.70;99.90
6462;DHT22;3264;42.862;25.098;2023-04-24T05:18:41;10.80;99.90
6462;DHT22;3264;42.862;25.098;2023-04-24T05:21:12;11.20;99.90
6462;DHT22;3264;42.862;25.098;2023-04-24T05:23:40;11.40;99.90
6462;DHT22;3264;42.862;25.098;2023-04-24T05:26:21;11.60;99.90
6462;DHT22;3264;42.862;25.098;2023-04-24T05:28:49;11.60;99.90
6462;DHT22;3264;42.862;25.098;2023-04-24T05:31:24;11.40;99.90
6462;DHT22;3264;42.862;25.098;2023-04-24T05:33:52;11.70;99.90
6462;DHT22;3264;42.862;25.098;2023-04-24T05:36:21;12.30;99.90
6462;DHT22;3264;42.862;25.098;2023-04-24T05:38:50;12.40;99.90
6462;DHT22;3264;42.862;25.098;2023-04-24T05:41:17;12.80;99.90
6462;DHT22;3264;42.862;25.098;2023-04-24T05:43:45;12.50;99.90
6462;DHT22;3264;42.862;25.098;2023-04-24T05:46:14;12.60;99.90
6462;DHT22;3264;42.862;25.098;2023-04-24T05:48:43;12.50;99.90
6462;DHT22;3264;42.862;25.098;2023-04-24T05:51:10;13.10;99.90
6462;DHT22;3264;42.862;25.098;2023-04-24T05:53:40;13.20;99.90
6462;DHT22;3264;42.862;25.098;2023-04-24T05:56:17;13.30;99.90
6462;DHT22;3264;42.862;25.098;2023-04-24T05:58:52;13.50;99.40
6462;DHT22;3264;42.862;25.098;2023-04-24T06:01:22;14.00;99.90
6462;DHT22;3264;42.862;25.098;2023-04-24T06:03:51;14.20;99.00
6462;DHT22;3264;42.862;25.098;2023-04-24T06:06:23;14.40;99.90
6462;DHT22;3264;42.862;25.098;2023-04-24T06:08:53;14.50;99.00
6462;DHT22;3264;42.862;25.098;2023-04-24T06:11:20;14.60;99.90
6462;DHT22;3264;42.862;25.098;2023-04-24T06:13:53;14.50;97.90
6462;DHT22;3264;42.862;25.098;2023-04-24T06:16:21;15.00;99.90
6462;DHT22;3264;42.862;25.098;2023-04-24T06:18:49;15.50;98.40
6462;DHT22;3264;42.862;25.098;2023-04-24T06:21:24;15.60;93.00
6462;DHT22;3264;42.862;25.098;2023-04-24T06:23:56;15.70;95.00
6462;DHT22;3264;42.862;25.098;2023-04-24T06:26:26;16.10;95.50
6462;DHT22;3264;42.862;25.098;2023-04-24T06:28:54;16.00;91.70
6462;DHT22;3264;42.862;25.098;2023-04-24T06:31:29;15.90;90.10
6462;DHT22;3264;42.862;25.098;2023-04-24T06:34:03;15.70;89.50
6462;DHT22;3264;42.862;25.098;2023-04-24T06:36:32;15.90;91.50
6462;DHT22;3264;42.862;25.098;2023-04-24T06:39:05;15.80;90.90
6462;DHT22;3264;42.862;25.098;2023-04-24T06:41:32;15.90;92.00
6462;DHT22;3264;42.862;25.098;2023-04-24T06:44:00;16.00;93.10
6462;DHT22;3264;42.862;25.098;2023-04-24T06:46:28;16.30;91.50
6462;DHT22;3264;42.862;25.098;2023-04-24T06:48:58;16.70;91.90
6462;DHT22;3264;42.862;25.098;2023-04-24T06:51:27;16.90;93.40
6462;DHT22;3264;42.862;25.098;2023-04-24T06:53:57;17.10;88.80
6462;DHT22;3264;42.862;25.098;2023-04-24T06:56:29;17.10;86.00
6462;DHT22;3264;42.862;25.098;2023-04-24T06:59:00;17.60;85.20
6462;DHT22;3264;42.862;25.098;2023-04-24T07:01:28;17.80;88.20
6462;DHT22;3264;42.862;25.098;2023-04-24T07:03:55;17.90;82.40
6462;DHT22;3264;42.862;25.098;2023-04-24T07:06:23;17.50;82.40
6462;DHT22;3264;42.862;25.098;2023-04-24T07:08:54;17.70;87.90
6462;DHT22;3264;42.862;25.098;2023-04-24T07:11:33;17.20;83.30
6462;DHT22;3264;42.862;25.098;2023-04-24T07:14:08;17.00;87.70
6462;DHT22;3264;42.862;25.098;2023-04-24T07:16:36;17.20;85.30
6462;DHT22;3264;42.862;25.098;2023-04-24T07:19:09;17.10;86.10
6462;DHT22;3264;42.862;25.098;2023-04-24T07:21:42;17.20;87.60
6462;DHT22;3264;42.862;25.098;2023-04-24T07:24:15;17.10;86.50
6462;DHT22;3264;42.862;25.098;2023-04-24T07:26:51;17.80;87.90
6462;DHT22;3264;42.862;25.098;2023-04-24T07:29:19;17.70;86.60
6462;DHT22;3264;42.862;25.098;2023-04-24T07:31:48;17.90;88.10
6462;DHT22;3264;42.862;25.098;2023-04-24T07:34:23;17.80;86.60
6462;DHT22;3264;42.862;25.098;2023-04-24T07:36:53;19.30;88.80
6462;DHT22;3264;42.862;25.098;2023-04-24T07:39:22;19.10;81.90
6462;DHT22;3264;42.862;25.098;2023-04-24T07:41:53;18.80;79.00
6462;DHT22;3264;42.862;25.098;2023-04-24T07:44:21;18.70;79.30
6462;DHT22;3264;42.862;25.098;2023-04-24T07:46:56;18.80;80.60
6462;DHT22;3264;42.862;25.098;2023-04-24T07:49:27;18.40;78.30
6462;DHT22;3264;42.862;25.098;2023-04-24T07:51:54;17.90;80.50
6462;DHT22;3264;42.862;25.098;2023-04-24T07:54:22;17.30;80.90
6462;DHT22;3264;42.862;25.098;2023-04-24T07:56:52;16.60;83.90
6462;DHT22;3264;42.862;25.098;2023-04-24T07:59:30;17.20;86.20
6462;DHT22;3264;42.862;25.098;2023-04-24T08:02:03;17.20;87.40
6462;DHT22;3264;42.862;25.098;2023-04-24T08:04:34;17.50;87.90
6462;DHT22;3264;42.862;25.098;2023-04-24T08:07:05;18.00;87.70
6462;DHT22;3264;42.862;25.098;2023-04-24T08:09:33;17.60;84.70
6462;DHT22;3264;42.862;25.098;2023-04-24T08:12:13;17.50;85.60
6462;DHT22;3264;42.862;25.098;2023-04-24T08:14:41;17.10;82.90
6462;DHT22;3264;42.862;25.098;2023-04-24T08:17:13;17.00;85.50
6462;DHT22;3264;42.862;25.098;2023-04-24T08:19:42;17.00;86.60
6462;DHT22;3264;42.862;25.098;2023-04-24T08:22:19;16.80;85.50
6462;DHT22;3264;42.862;25.098;2023-04-24T08:24:46;16.90;85.60
6462;DHT22;3264;42.862;25.098;2023-04-24T08:27:16;16.80;87.10
6462;DHT22;3264;42.862;25.098;2023-04-24T08:29:48;16.80;87.10
6462;DHT22;3264;42.862;25.098;2023-04-24T08:32:21;16.70;88.90
6462;DHT22;3264;42.862;25.098;2023-04-24T08:34:49;16.60;90.70
6462;DHT22;3264;42.862;25.098;2023-04-24T08:37:22;16.50;87.50
6462;DHT22;3264;42.862;25.098;2023-04-24T08:39:52;16.40;86.50
6462;DHT22;3264;42.862;25.098;2023-04-24T08:42:31;16.20;90.30
6462;DHT22;3264;42.862;25.098;2023-04-24T08:44:59;16.20;91.50
6462;DHT22;3264;42.862;25.098;2023-04-24T08:47:31;15.90;95.30
6462;DHT22;3264;42.862;25.098;2023-04-24T08:50:03;15.70;93.60
6462;DHT22;3264;42.862;25.098;2023-04-24T08:52:32;15.90;95.90
6462;DHT22;3264;42.862;25.098;2023-04-24T08:55:00;16.20;97.50
6462;DHT22;3264;42.862;25.098;2023-04-24T08:57:30;16.50;96.20
6462;DHT22;3264;42.862;25.098;2023-04-24T09:00:04;16.20;93.50
6462;DHT22;3264;42.862;25.098;2023-04-24T09:02:33;16.30;93.60
6462;DHT22;3264;42.862;25.098;2023-04-24T09:05:02;16.70;94.30
6462;DHT22;3264;42.862;25.098;2023-04-24T09:07:32;16.50;95.20
6462;DHT22;3264;42.862;25.098;2023-04-24T09:10:02;16.80;94.00
6462;DHT22;3264;42.862;25.098;2023-04-24T09:12:32;16.80;92.20
6462;DHT22;3264;42.862;25.098;2023-04-24T09:15:27;16.90;92.20
6462;DHT22;3264;42.862;25.098;2023-04-24T09:18:06;17.00;92.20
6462;DHT22;3264;42.862;25.098;2023-04-24T09:20:35;17.00;91.60
6462;DHT22;3264;42.862;25.098;2023-04-24T09:23:28;17.40;91.50
6462;DHT22;3264;42.862;25.098;2023-04-24T09:25:59;18.60;91.40
6462;DHT22;3264;42.862;25.098;2023-04-24T09:28:36;18.60;86.60
6462;DHT22;3264;42.862;25.098;2023-04-24T09:31:13;18.20;82.40
6462;DHT22;3264;42.862;25.098;2023-04-24T09:33:53;18.60;81.30
6462;DHT22;3264;42.862;25.098;2023-04-24T09:36:27;19.00;81.80
6462;DHT22;3264;42.862;25.098;2023-04-24T09:39:12;19.20;79.80
6462;DHT22;3264;42.862;25.098;2023-04-24T09:41:45;19.30;79.50
6462;DHT22;3264;42.862;25.098;2023-04-24T09:44:20;19.10;81.10
6462;DHT22;3264;42.862;25.098;2023-04-24T09:46:56;18.60;75.10
6462;DHT22;3264;42.862;25.098;2023-04-24T09:49:37;18.20;79.60
6462;DHT22;3264;42.862;25.098;2023-04-24T09:52:08;17.90;82.20
6462;DHT22;3264;42.862;25.098;2023-04-24T09:54:39;17.70;81.10
6462;DHT22;3264;42.862;25.098;2023-04-24T09:57:09;17.10;80.40
6462;DHT22;3264;42.862;25.098;2023-04-24T09:59:47;17.20;85.40
6462;DHT22;3264;42.862;25.098;2023-04-24T10:02:20;16.70;85.90
6462;DHT22;3264;42.862;25.098;2023-04-24T10:04:57;16.10;96.90
6462;DHT22;3264;42.862;25.098;2023-04-24T10:07:29;15.10;99.90
6462;DHT22;3264;42.862;25.098;2023-04-24T10:10:03;15.20;99.90
6462;DHT22;3264;42.862;25.098;2023-04-24T10:12:39;15.40;99.90
6462;DHT22;3264;42.862;25.098;2023-04-24T10:15:10;15.30;99.90
6462;DHT22;3264;42.862;25.098;2023-04-24T10:17:48;15.70;99.90
6462;DHT22;3264;42.862;25.098;2023-04-24T10:20:27;15.80;99.90
6462;DHT22;3264;42.862;25.098;2023-04-24T10:23:01;16.20;99.90
6462;DHT22;3264;42.862;25.098;2023-04-24T10:25:30;17.30;99.90
6462;DHT22;3264;42.862;25.098;2023-04-24T10:28:12;18.00;99.90
6462;DHT22;3264;42.862;25.098;2023-04-24T10:30:45;19.10;99.90
6462;DHT22;3264;42.862;25.098;2023-04-24T10:33:17;18.10;99.90
6462;DHT22;3264;42.862;25.098;2023-04-24T10:35:48;18.60;99.90
6462;DHT22;3264;42.862;25.098;2023-04-24T10:38:25;19.40;99.90
6462;DHT22;3264;42.862;25.098;2023-04-24T10:41:06;20.00;99.90
6462;DHT22;3264;42.862;25.098;2023-04-24T10:43:38;19.10;96.40
6462;DHT22;3264;42.862;25.098;2023-04-24T10:46:30;19.20;97.00
6462;DHT22;3264;42.862;25.098;2023-04-24T10:49:04;19.20;90.00
6462;DHT22;3264;42.862;25.098;2023-04-24T10:52:00;20.20;96.90
6462;DHT22;3264;42.862;25.098;2023-04-24T10:54:36;20.70;94.00
6462;DHT22;3264;42.862;25.098;2023-04-24T10:57:28;20.70;87.30
6462;DHT22;3264;42.862;25.098;2023-04-24T11:00:18;20.50;81.40
6462;DHT22;3264;42.862;25.098;2023-04-24T11:02:48;20.50;80.80
6462;DHT22;3264;42.862;25.098;2023-04-24T11:05:20;19.70;89.40
6462;DHT22;3264;42.862;25.098;2023-04-24T11:08:22;19.40;80.40
6462;DHT22;3264;42.862;25.098;2023-04-24T11:10:58;18.80;77.00
6462;DHT22;3264;42.862;25.098;2023-04-24T11:16:32;18.30;90.80
6462;DHT22;3264;42.862;25.098;2023-04-24T11:19:06;19.10;90.70
6462;DHT22;3264;42.862;25.098;2023-04-24T11:21:46;19.50;81.40
6462;DHT22;3264;42.862;25.098;2023-04-24T11:24:25;20.30;88.00
6462;DHT22;3264;42.862;25.098;2023-04-24T11:26:56;19.90;84.10
6462;DHT22;3264;42.862;25.098;2023-04-24T11:29:45;19.50;90.40
6462;DHT22;3264;42.862;25.098;2023-04-24T11:32:24;19.70;84.80
6462;DHT22;3264;42.862;25.098;2023-04-24T11:34:56;20.20;78.60
6462;DHT22;3264;42.862;25.098;2023-04-24T11:37:26;20.20;77.40
6462;DHT22;3264;42.862;25.098;2023-04-24T11:39:57;20.30;84.10
6462;DHT22;3264;42.862;25.098;2023-04-24T11:42:26;19.70;85.70
6462;DHT22;3264;42.862;25.098;2023-04-24T11:45:01;19.80;82.60
6462;DHT22;3264;42.862;25.098;2023-04-24T11:47:33;19.70;79.60
6462;DHT22;3264;42.862;25.098;2023-04-24T11:50:08;20.40;78.50
6462;DHT22;3264;42.862;25.098;2023-04-24T11:52:40;20.00;80.20
6462;DHT22;3264;42.862;25.098;2023-04-24T11:55:23;19.40;77.00
6462;DHT22;3264;42.862;25.098;2023-04-24T11:58:02;19.70;77.40
6462;DHT22;3264;42.862;25.098;2023-04-24T12:00:33;19.20;79.40
6462;DHT22;3264;42.862;25.098;2023-04-24T12:03:08;19.50;79.50
6462;DHT22;3264;42.862;25.098;2023-04-24T12:05:38;20.10;81.60
6462;DHT22;3264;42.862;25.098;2023-04-24T12:08:15;20.00;72.10
6462;DHT22;3264;42.862;25.098;2023-04-24T12:11:01;21.20;77.70
6462;DHT22;3264;42.862;25.098;2023-04-24T12:13:31;21.10;72.70
6462;DHT22;3264;42.862;25.098;2023-04-24T12:16:07;21.50;72.60
6462;DHT22;3264;42.862;25.098;2023-04-24T12:18:46;21.40;75.50
6462;DHT22;3264;42.862;25.098;2023-04-24T12:21:22;21.10;68.80
6462;DHT22;3264;42.862;25.098;2023-04-24T12:23:55;21.20;70.50
6462;DHT22;3264;42.862;25.098;2023-04-24T12:26:23;20.80;67.60
6462;DHT22;3264;42.862;25.098;2023-04-24T12:28:53;21.10;72.90
6462;DHT22;3264;42.862;25.098;2023-04-24T12:31:21;21.30;73.80
6462;DHT22;3264;42.862;25.098;2023-04-24T12:33:49;21.60;69.10
6462;DHT22;3264;42.862;25.098;2023-04-24T12:36:30;22.30;68.80
6462;DHT22;3264;42.862;25.098;2023-04-24T12:39:17;22.70;70.90
6462;DHT22;3264;42.862;25.098;2023-04-24T12:41:55;22.40;67.50
6462;DHT22;3264;42.862;25.098;2023-04-24T12:44:31;22.20;63.40
6462;DHT22;3264;42.862;25.098;2023-04-24T12:47:02;22.50;64.60
6462;DHT22;3264;42.862;25.098;2023-04-24T12:49:32;20.80;62.50
6462;DHT22;3264;42.862;25.098;2023-04-24T12:52:08;20.70;63.40
6462;DHT22;3264;42.862;25.098;2023-04-24T12:54:37;20.90;64.70
6462;DHT22;3264;42.862;25.098;2023-04-24T12:57:09;22.30;66.80
6462;DHT22;3264;42.862;25.098;2023-04-24T12:59:38;21.70;60.60
6462;DHT22;3264;42.862;25.098;2023-04-24T13:02:12;21.50;63.00
6462;DHT22;3264;42.862;25.098;2023-04-24T13:04:44;20.90;63.00
6462;DHT22;3264;42.862;25.098;2023-04-24T13:07:18;21.30;66.00
6462;DHT22;3264;42.862;25.098;2023-04-24T13:09:58;20.80;66.10
6462;DHT22;3264;42.862;25.098;2023-04-24T13:12:35;21.20;65.60
6462;DHT22;3264;42.862;25.098;2023-04-24T13:15:05;21.10;64.80
6462;DHT22;3264;42.862;25.098;2023-04-24T13:17:34;21.10;68.90
6462;DHT22;3264;42.862;25.098;2023-04-24T13:20:03;21.40;65.70
6462;DHT22;3264;42.862;25.098;2023-04-24T13:22:36;21.10;64.40
6462;DHT22;3264;42.862;25.098;2023-04-24T13:25:09;20.50;61.80
6462;DHT22;3264;42.862;25.098;2023-04-24T13:27:38;20.70;65.30
6462;DHT22;3264;42.862;25.098;2023-04-24T13:30:09;20.80;66.00
6462;DHT22;3264;42.862;25.098;2023-04-24T13:32:40;20.80;66.50
6462;DHT22;3264;42.862;25.098;2023-04-24T13:35:10;20.60;69.70
6462;DHT22;3264;42.862;25.098;2023-04-24T13:37:39;20.30;72.30
6462;DHT22;3264;42.862;25.098;2023-04-24T13:40:28;20.40;73.70
6462;DHT22;3264;42.862;25.098;2023-04-24T13:42:55;20.70;73.90
6462;DHT22;3264;42.862;25.098;2023-04-24T13:45:26;20.40;73.00
6462;DHT22;3264;42.862;25.098;2023-04-24T13:47:56;20.60;74.40
6462;DHT22;3264;42.862;25.098;2023-04-24T13:50:24;20.70;71.90
6462;DHT22;3264;42.862;25.098;2023-04-24T13:52:53;21.00;72.80
6462;DHT22;3264;42.862;25.098;2023-04-24T13:55:32;20.80;71.80
6462;DHT22;3264;42.862;25.098;2023-04-24T13:58:00;20.50;70.60
6462;DHT22;3264;42.862;25.098;2023-04-24T14:00:28;20.60;73.60
6462;DHT22;3264;42.862;25.098;2023-04-24T14:02:58;20.60;72.70
6462;DHT22;3264;42.862;25.098;2023-04-24T14:05:27;20.30;75.00
6462;DHT22;3264;42.862;25.098;2023-04-24T14:07:59;20.20;75.80
6462;DHT22;3264;42.862;25.098;2023-04-24T14:10:27;20.00;72.00
6462;DHT22;3264;42.862;25.098;2023-04-24T14:15:42;19.00;70.90
6462;DHT22;3264;42.862;25.098;2023-04-24T14:18:10;19.10;72.90
6462;DHT22;3264;42.862;25.098;2023-04-24T14:20:38;18.80;73.80
6462;DHT22;3264;42.862;25.098;2023-04-24T14:23:17;18.80;76.10
6462;DHT22;3264;42.862;25.098;2023-04-24T14:25:52;18.60;76.10
6462;DHT22;3264;42.862;25.098;2023-04-24T14:28:20;18.40;74.40
6462;DHT22;3264;42.862;25.098;2023-04-24T14:30:49;18.40;76.20
6462;DHT22;3264;42.862;25.098;2023-04-24T14:33:17;18.30;76.00
6462;DHT22;3264;42.862;25.098;2023-04-24T14:35:46;18.30;76.30
6462;DHT22;3264;42.862;25.098;2023-04-24T14:38:37;18.20;76.60
6462;DHT22;3264;42.862;25.098;2023-04-24T14:41:06;18.30;78.80
6462;DHT22;3264;42.862;25.098;2023-04-24T14:43:36;18.50;78.50
6462;DHT22;3264;42.862;25.098;2023-04-24T14:46:05;18.30;77.80
6462;DHT22;3264;42.862;25.098;2023-04-24T14:48:33;18.30;82.20
6462;DHT22;3264;42.862;25.098;2023-04-24T14:51:03;18.20;82.10
6462;DHT22;3264;42.862;25.098;2023-04-24T14:53:36;18.00;81.30
6462;DHT22;3264;42.862;25.098;2023-04-24T14:56:05;17.90;83.50
6462;DHT22;3264;42.862;25.098;2023-04-24T14:58:33;17.90;82.60
6462;DHT22;3264;42.862;25.098;2023-04-24T15:01:00;17.70;81.70
6462;DHT22;3264;42.862;25.098;2023-04-24T15:03:30;17.50;81.90
6462;DHT22;3264;42.862;25.098;2023-04-24T15:06:11;17.60;82.30
6462;DHT22;3264;42.862;25.098;2023-04-24T15:08:46;17.60;84.60
6462;DHT22;3264;42.862;25.098;2023-04-24T15:11:20;17.40;88.40
6462;DHT22;3264;42.862;25.098;2023-04-24T15:13:52;17.00;86.80
6462;DHT22;3264;42.862;25.098;2023-04-24T15:16:21;17.00;86.90
6462;DHT22;3264;42.862;25.098;2023-04-24T15:18:52;17.00;85.90
6462;DHT22;3264;42.862;25.098;2023-04-24T15:21:28;16.70;86.00
6462;DHT22;3264;42.862;25.098;2023-04-24T15:24:10;15.60;92.00
6462;DHT22;3264;42.862;25.098;2023-04-24T15:26:41;15.20;97.50
6462;DHT22;3264;42.862;25.098;2023-04-24T15:29:09;14.50;99.90
6462;DHT22;3264;42.862;25.098;2023-04-24T15:31:37;14.10;99.90
6462;DHT22;3264;42.862;25.098;2023-04-24T15:34:06;13.70;99.90
6462;DHT22;3264;42.862;25.098;2023-04-24T15:36:36;13.50;99.90
6462;DHT22;3264;42.862;25.098;2023-04-24T15:39:09;13.20;99.90
6462;DHT22;3264;42.862;25.098;2023-04-24T15:41:40;13.30;99.90
6462;DHT22;3264;42.862;25.098;2023-04-24T15:44:18;13.20;99.90
6462;DHT22;3264;42.862;25.098;2023-04-24T15:46:52;13.30;99.90
6462;DHT22;3264;42.862;25.098;2023-04-24T15:49:23;13.40;99.90
6462;DHT22;3264;42.862;25.098;2023-04-24T15:51:55;13.50;99.90
6462;DHT22;3264;42.862;25.098;2023-04-24T15:54:25;13.40;99.90
6462;DHT22;3264;42.862;25.098;2023-04-24T15:56:59;13.30;99.90
6462;DHT22;3264;42.862;25.098;2023-04-24T15:59:38;13.40;99.90
6462;DHT22;3264;42.862;25.098;2023-04-24T16:02:12;13.30;99.90
6462;DHT22;3264;42.862;25.098;2023-04-24T16:04:52;13.20;99.90
6462;DHT22;3264;42.862;25.098;2023-04-24T16:07:22;13.00;99.90
6462;DHT22;3264;42.862;25.098;2023-04-24T16:09:53;13.10;99.90
6462;DHT22;3264;42.862;25.098;2023-04-24T16:12:26;13.10;99.90
6462;DHT22;3264;42.862;25.098;2023-04-24T16:14:54;13.00;99.90
6462;DHT22;3264;42.862;25.098;2023-04-24T16:17:24;13.00;99.90
6462;DHT22;3264;42.862;25.098;2023-04-24T16:19:54;13.00;99.90
6462;DHT22;3264;42.862;25.098;2023-04-24T16:22:21;13.10;99.90
6462;DHT22;3264;42.862;25.098;2023-04-24T16:24:54;13.10;99.90
6462;DHT22;3264;42.862;25.098;2023-04-24T16:27:27;13.10;99.90